Time;durP1;ratioP1;P1;durP2;ratioP2;P2;SDS_P1;SDS_P2;PMS_P1;PMS_P2;Temp;Humidity;BMP_temperature;BMP_pressure;BME280_temperature;BME280_humidity;BME280_pressure;Samples;Min_cycle;Max_cycle;Signal;HPM_P1;HPM_P2
2022/02/13 00:01:10;;;;;;;76.47;16.98;;;0.90;99.90;;;;;;4880328;29;20215;-88
2022/02/13 00:03:36;;;;;;;77.22;18.45;;;0.90;98.90;;;;;;4880204;29;20524;-88
2022/02/13 00:06:02;;;;;;;76.77;17.53;;;0.90;99.90;;;;;;4878985;29;20213;-88
2022/02/13 00:08:28;;;;;;;78.45;17.92;;;0.80;99.90;;;;;;4878795;29;20459;-88
2022/02/13 00:10:53;;;;;;;78.13;18.80;;;0.90;99.90;;;;;;4878904;29;20177;-88
2022/02/13 00:13:19;;;;;;;78.10;18.87;;;0.80;97.00;;;;;;4880263;29;20420;-88
2022/02/13 00:15:45;;;;;;;75.60;18.90;;;0.70;99.90;;;;;;4879403;29;20199;-88
2022/02/13 00:18:11;;;;;;;80.20;18.53;;;0.70;99.90;;;;;;4880669;29;20411;-88
2022/02/13 00:20:36;;;;;;;78.40;21.20;;;0.70;99.90;;;;;;4880063;29;20647;-88
2022/02/13 00:23:02;;;;;;;82.63;21.97;;;0.70;99.90;;;;;;4879937;29;20173;-88
2022/02/13 00:25:28;;;;;;;79.67;22.70;;;0.70;99.90;;;;;;4879819;29;20201;-88
2022/02/13 00:27:55;;;;;;;77.20;21.35;;;0.80;99.90;;;;;;4879369;29;20174;-88
2022/02/13 00:30:21;;;;;;;79.95;18.42;;;0.80;99.90;;;;;;4879438;29;20167;-88
2022/02/13 00:32:48;;;;;;;76.90;19.67;;;0.70;99.90;;;;;;4879850;29;20520;-88
2022/02/13 00:35:15;;;;;;;76.80;17.60;;;0.70;99.90;;;;;;4879741;29;20190;-89
2022/02/13 00:37:41;;;;;;;73.20;17.58;;;0.70;99.90;;;;;;4879814;29;20246;-89
2022/02/13 00:40:08;;;;;;;75.63;16.90;;;0.70;99.90;;;;;;4878763;29;20178;-89
2022/02/13 00:42:34;;;;;;;76.55;17.50;;;0.70;99.90;;;;;;4878437;29;20203;-89
2022/02/13 00:45:00;;;;;;;72.28;17.13;;;0.60;99.90;;;;;;4878633;29;20222;-88
2022/02/13 00:47:26;;;;;;;79.03;18.33;;;0.60;1.00;;;;;;4879633;29;20643;-88
2022/02/13 00:49:52;;;;;;;76.57;16.23;;;0.50;99.90;;;;;;4879740;29;20559;-88
2022/02/13 00:52:18;;;;;;;73.47;16.73;;;0.50;1.00;;;;;;4879868;29;20173;-89
2022/02/13 00:54:44;;;;;;;76.60;19.45;;;0.50;1.00;;;;;;4878121;29;20225;-88
2022/02/13 00:57:09;;;;;;;73.57;15.57;;;0.50;1.00;;;;;;4878389;29;20195;-89
2022/02/13 00:59:35;;;;;;;76.60;17.20;;;0.50;1.00;;;;;;4879512;29;20230;-88
2022/02/13 01:02:01;;;;;;;77.80;20.17;;;0.60;1.00;;;;;;4879525;29;20238;-88
2022/02/13 01:04:26;;;;;;;74.10;15.43;;;0.60;1.00;;;;;;4878319;29;20182;-88
2022/02/13 01:06:52;;;;;;;76.50;17.27;;;0.60;99.90;;;;;;4878190;29;20562;-89
2022/02/13 01:09:18;;;;;;;73.10;15.63;;;0.60;99.90;;;;;;4878513;29;20994;-88
2022/02/13 01:11:44;;;;;;;80.77;17.27;;;0.60;99.90;;;;;;4878231;29;20667;-88
2022/02/13 01:14:09;;;;;;;77.20;18.37;;;0.60;99.90;;;;;;4878431;29;20261;-88
2022/02/13 01:16:35;;;;;;;78.20;20.30;;;0.60;99.90;;;;;;4878106;29;21021;-89
2022/02/13 01:19:01;;;;;;;74.33;16.37;;;0.50;99.90;;;;;;4879360;29;20175;-88
2022/02/13 01:21:29;;;;;;;73.53;21.70;;;0.50;99.90;;;;;;4878163;29;20182;-88
2022/02/13 01:23:55;;;;;;;80.07;23.63;;;0.50;99.90;;;;;;4878014;29;20286;-88
2022/02/13 01:26:21;;;;;;;76.40;20.67;;;0.50;1.00;;;;;;4879255;29;20563;-88
2022/02/13 01:28:47;;;;;;;74.30;20.00;;;0.60;99.90;;;;;;4878253;29;20194;-88
2022/02/13 01:31:13;;;;;;;74.47;24.40;;;0.50;1.00;;;;;;4879222;29;20174;-88
2022/02/13 01:33:40;;;;;;;75.78;19.15;;;0.50;1.00;;;;;;4879162;29;20400;-88
2022/02/13 01:36:06;;;;;;;76.38;23.60;;;0.60;1.00;;;;;;4877899;29;20201;-89
2022/02/13 01:38:32;;;;;;;74.70;21.48;;;0.60;7.30;;;;;;4879276;29;20242;-88
2022/02/13 01:40:58;;;;;;;72.93;18.65;;;0.70;1.00;;;;;;4879566;29;20194;-88
2022/02/13 01:43:23;;;;;;;72.80;18.40;;;0.70;99.90;;;;;;4881066;29;20710;-88
2022/02/13 01:45:49;;;;;;;72.57;19.20;;;0.70;99.90;;;;;;4881520;29;20443;-89
2022/02/13 01:48:15;;;;;;;77.20;18.93;;;0.70;99.90;;;;;;4882919;29;20230;-88
2022/02/13 01:50:42;;;;;;;81.90;16.50;;;0.60;99.90;;;;;;4881565;29;20196;-88
2022/02/13 01:53:10;;;;;;;74.90;16.20;;;0.60;99.90;;;;;;4882483;29;20258;-88
2022/02/13 01:55:36;;;;;;;74.60;15.52;;;0.60;99.90;;;;;;4882825;29;20234;-88
2022/02/13 01:58:03;;;;;;;72.30;15.45;;;0.50;99.90;;;;;;4881338;29;20175;-88
2022/02/13 02:00:28;;;;;;;72.30;16.05;;;0.50;99.90;;;;;;4882749;29;20246;-88
2022/02/13 02:02:54;;;;;;;73.47;18.20;;;0.50;99.90;;;;;;4882459;29;20213;-88
2022/02/13 02:05:20;;;;;;;74.40;17.30;;;0.50;55.00;;;;;;4881079;29;20202;-88
2022/02/13 02:07:45;;;;;;;76.83;17.77;;;0.50;99.90;;;;;;4882712;29;20674;-88
2022/02/13 02:10:12;;;;;;;74.73;21.90;;;0.50;99.90;;;;;;4883694;29;20223;-88
2022/02/13 02:12:39;;;;;;;75.00;20.13;;;0.50;99.90;;;;;;4882464;29;20592;-88
2022/02/13 02:15:06;;;;;;;74.82;18.38;;;0.50;99.90;;;;;;4880952;29;20194;-88
2022/02/13 02:17:33;;;;;;;75.88;18.25;;;0.50;99.90;;;;;;4880897;29;20174;-88
2022/02/13 02:19:59;;;;;;;72.40;17.00;;;0.50;99.90;;;;;;4880877;29;20659;-88
2022/02/13 02:22:24;;;;;;;79.57;17.90;;;0.40;1.00;;;;;;4880868;29;20194;-88
2022/02/13 02:24:53;;;;;;;74.70;15.80;;;0.50;45.20;;;;;;4881962;29;20418;-89
2022/02/13 02:27:18;;;;;;;77.07;17.55;;;0.40;1.00;;;;;;4881363;29;20265;-88
2022/02/13 02:29:44;;;;;;;72.60;16.63;;;0.40;99.00;;;;;;4880647;29;20436;-88
2022/02/13 02:32:11;;;;;;;71.27;15.50;;;0.40;1.00;;;;;;4880740;29;20248;-88
2022/02/13 02:34:38;;;;;;;73.63;17.38;;;0.40;17.10;;;;;;4881809;29;20585;-88
2022/02/13 02:37:07;;;;;;;73.70;15.82;;;0.50;99.90;;;;;;4881842;29;20163;-88
2022/02/13 02:39:33;;;;;;;72.93;16.52;;;0.40;99.90;;;;;;4881982;29;20201;-88
2022/02/13 02:42:00;;;;;;;72.90;15.60;;;0.40;99.90;;;;;;4880456;29;20647;-88
2022/02/13 02:44:25;;;;;;;78.05;19.92;;;0.40;99.90;;;;;;4882014;29;20455;-88
2022/02/13 02:46:51;;;;;;;74.67;18.37;;;0.30;99.90;;;;;;4880393;29;20218;-88
2022/02/13 02:49:17;;;;;;;72.27;15.40;;;0.30;99.90;;;;;;4881559;29;20191;-88
2022/02/13 02:51:43;;;;;;;74.60;19.70;;;0.30;99.90;;;;;;4881587;29;20174;-88
2022/02/13 02:54:08;;;;;;;76.40;17.80;;;0.40;99.90;;;;;;4881115;29;20688;-88
2022/02/13 02:56:34;;;;;;;75.77;16.27;;;0.40;99.90;;;;;;4881468;29;20265;-88
2022/02/13 02:58:59;;;;;;;73.67;13.40;;;0.40;99.90;;;;;;4881499;29;20167;-88
2022/02/13 03:01:25;;;;;;;70.67;13.80;;;0.50;99.90;;;;;;4880989;29;20261;-88
2022/02/13 03:03:51;;;;;;;71.83;12.97;;;0.40;99.90;;;;;;4880470;29;20691;-88
2022/02/13 03:06:17;;;;;;;70.50;13.43;;;0.40;99.90;;;;;;4881341;29;20198;-88
2022/02/13 03:08:42;;;;;;;73.57;14.67;;;0.30;99.90;;;;;;4881189;29;20207;-88
2022/02/13 03:11:09;;;;;;;74.80;15.27;;;0.20;99.90;;;;;;4881229;29;20783;-88
2022/02/13 03:13:35;;;;;;;79.43;16.58;;;0.20;99.90;;;;;;4881252;29;20167;-88
2022/02/13 03:16:01;;;;;;;73.07;15.02;;;0.10;19.00;;;;;;4881134;29;20229;-88
2022/02/13 03:18:30;;;;;;;74.22;16.30;;;0.10;91.60;;;;;;4879847;29;20639;-88
2022/02/13 03:20:58;;;;;;;77.40;17.08;;;0.10;95.60;;;;;;4880977;29;20187;-88
2022/02/13 03:23:25;;;;;;;71.35;14.82;;;0.10;99.90;;;;;;4881361;29;20167;-88
2022/02/13 03:25:50;;;;;;;74.90;16.25;;;0.10;99.90;;;;;;4879921;29;20199;-89
2022/02/13 03:28:16;;;;;;;82.97;19.20;;;0.10;99.90;;;;;;4880829;29;20201;-88
2022/02/13 03:30:42;;;;;;;74.80;16.80;;;0.10;99.90;;;;;;4879686;29;20177;-88
2022/02/13 03:33:08;;;;;;;76.93;15.93;;;0.10;99.90;;;;;;4879906;29;20959;-88
2022/02/13 03:35:35;;;;;;;75.33;15.10;;;0.10;99.90;;;;;;4879482;29;20226;-88
2022/02/13 03:38:01;;;;;;;77.25;16.52;;;0.00;99.90;;;;;;4880800;29;20175;-88
2022/02/13 03:40:27;;;;;;;79.53;16.60;;;0.00;99.90;;;;;;4879444;29;20174;-88
2022/02/13 03:42:53;;;;;;;76.97;19.87;;;-0.10;99.90;;;;;;4880667;29;20189;-88
2022/02/13 03:45:18;;;;;;;80.50;21.13;;;0.00;99.90;;;;;;4879335;29;20190;-88
2022/02/13 03:47:44;;;;;;;77.00;21.20;;;-0.10;99.90;;;;;;4880580;29;20407;-88
2022/02/13 03:50:10;;;;;;;77.90;20.67;;;-0.10;99.90;;;;;;4880394;29;20662;-88
2022/02/13 03:52:36;;;;;;;79.10;22.42;;;-0.10;99.90;;;;;;4879229;29;20420;-88
2022/02/13 03:55:03;;;;;;;79.20;26.27;;;-0.10;99.90;;;;;;4879082;29;20237;-88
2022/02/13 03:57:29;;;;;;;84.20;25.67;;;-0.10;99.90;;;;;;4879387;29;20171;-88
2022/02/13 03:59:57;;;;;;;77.15;21.33;;;-0.10;99.90;;;;;;4880427;29;20198;-88
2022/02/13 04:02:23;;;;;;;75.93;20.02;;;-0.10;99.90;;;;;;4880315;29;20171;-88
2022/02/13 04:04:50;;;;;;;80.13;18.30;;;0.00;99.90;;;;;;4878580;29;20551;-88
2022/02/13 04:07:15;;;;;;;79.32;19.08;;;0.00;99.90;;;;;;4880331;29;20429;-88
2022/02/13 04:09:42;;;;;;;78.70;21.70;;;0.00;99.90;;;;;;4880401;29;20285;-88
2022/02/13 04:12:08;;;;;;;72.70;16.92;;;-0.10;95.00;;;;;;4878973;29;20182;-88
2022/02/13 04:14:34;;;;;;;74.28;19.27;;;-0.10;92.70;;;;;;4878798;29;20171;-88
2022/02/13 04:16:59;;;;;;;75.77;21.90;;;0.00;95.00;;;;;;4878811;29;20182;-88
2022/02/13 04:19:25;;;;;;;77.40;18.33;;;-0.10;95.40;;;;;;4880561;29;20895;-88
2022/02/13 04:21:51;;;;;;;78.10;19.90;;;0.00;95.90;;;;;;4879308;29;20275;-88
2022/02/13 04:24:17;;;;;;;73.23;19.80;;;-0.10;57.30;;;;;;4880038;29;20567;-88
2022/02/13 04:26:43;;;;;;;72.37;17.17;;;-0.10;99.90;;;;;;4880243;29;20470;-88
2022/02/13 04:29:10;;;;;;;75.95;20.23;;;-0.20;99.90;;;;;;4878767;29;20219;-88
2022/02/13 04:31:35;;;;;;;75.53;17.83;;;-0.20;99.90;;;;;;4880112;29;20677;-88
2022/02/13 04:34:07;;;;;;;72.43;21.50;;;-0.30;99.90;;;;;;4882202;29;20171;-88
2022/02/13 04:36:36;;;;;;;74.05;17.27;;;-0.30;1.00;;;;;;4882439;29;20415;-88
2022/02/13 04:39:03;;;;;;;74.00;19.48;;;-0.30;23.20;;;;;;4881866;29;20178;-88
2022/02/13 04:41:29;;;;;;;73.35;18.13;;;-0.30;56.00;;;;;;4880067;29;20175;-88
2022/02/13 04:43:54;;;;;;;73.80;19.57;;;-0.20;58.40;;;;;;4878670;29;20178;-88
2022/02/13 04:46:20;;;;;;;78.80;22.40;;;-0.20;56.50;;;;;;4878786;29;20202;-88
2022/02/13 04:48:45;;;;;;;73.20;18.53;;;-0.30;1.00;;;;;;4879659;29;20675;-88
2022/02/13 04:51:11;;;;;;;73.33;18.97;;;-0.20;8.10;;;;;;4878633;29;20194;-88
2022/02/13 04:53:37;;;;;;;75.80;21.47;;;-0.30;27.70;;;;;;4944083;23;20226;-87
2022/02/13 04:56:04;;;;;;;72.67;15.57;;;-0.20;54.50;;;;;;4882602;29;20216;-87
2022/02/13 04:58:34;;;;;;;72.82;14.35;;;-0.20;30.60;;;;;;4882391;29;20174;-87
2022/02/13 05:01:00;;;;;;;73.72;18.45;;;-0.20;1.00;;;;;;4882526;29;20170;-87
2022/02/13 05:03:26;;;;;;;72.78;16.92;;;-0.30;99.90;;;;;;4881335;29;20181;-87
2022/02/13 05:05:55;;;;;;;75.15;21.65;;;-0.30;99.90;;;;;;4881235;29;20288;-87
2022/02/13 05:08:21;;;;;;;75.15;24.23;;;-0.30;1.00;;;;;;4881051;29;20206;-87
2022/02/13 05:10:48;;;;;;;77.97;20.53;;;-0.30;1.00;;;;;;4882516;29;20641;-87
2022/02/13 05:13:14;;;;;;;77.60;28.65;;;-0.30;1.00;;;;;;4882273;29;20673;-87
2022/02/13 05:15:40;;;;;;;76.70;26.90;;;-0.40;1.00;;;;;;4882508;29;20195;-87
2022/02/13 05:18:08;;;;;;;75.00;23.55;;;-0.40;1.00;;;;;;4885173;29;20435;-87
2022/02/13 05:20:34;;;;;;;77.88;22.55;;;-0.30;1.00;;;;;;4886382;29;20181;-87
2022/02/13 05:22:59;;;;;;;74.07;22.37;;;-0.40;1.00;;;;;;4886001;29;20163;-87
2022/02/13 05:25:25;;;;;;;74.50;21.33;;;-0.30;1.00;;;;;;4885794;29;20242;-87
2022/02/13 05:27:51;;;;;;;74.80;21.50;;;-0.30;99.90;;;;;;4884948;29;20252;-87
2022/02/13 05:30:26;;;;;;;72.63;20.73;;;-0.30;1.00;;;;;;4884633;29;20199;-87
2022/02/13 05:32:52;;;;;;;76.50;23.67;;;-0.30;99.90;;;;;;4884693;29;20182;-87
2022/02/13 05:35:17;;;;;;;74.43;22.93;;;-0.30;99.90;;;;;;4886223;29;20675;-87
2022/02/13 05:37:43;;;;;;;76.30;23.70;;;-0.20;99.90;;;;;;4884839;29;20639;-87
2022/02/13 05:40:10;;;;;;;78.43;22.40;;;-0.20;99.90;;;;;;4885199;29;20186;-87
2022/02/13 05:42:38;;;;;;;74.85;22.60;;;-0.10;99.90;;;;;;4887225;29;20249;-87
2022/02/13 05:45:04;;;;;;;75.45;21.92;;;-0.10;99.90;;;;;;4885126;29;20566;-87
2022/02/13 05:47:52;;;;;;;74.68;20.73;;;-0.10;99.90;;;;;;4887222;29;20171;-87
2022/02/13 05:50:21;;;;;;;91.45;17.70;;;-0.10;99.90;;;;;;4886599;29;20197;-87
2022/02/13 05:52:55;;;;;;;71.85;15.98;;;-0.10;99.90;;;;;;4886576;29;20173;-87
2022/02/13 05:55:24;;;;;;;73.85;16.10;;;-0.10;99.90;;;;;;4884847;29;20627;-87
2022/02/13 05:57:56;;;;;;;74.97;17.38;;;-0.10;99.90;;;;;;4885062;29;20197;-87
2022/02/13 06:00:32;;;;;;;;;;;;;;;;;;;;;
2022/02/13 06:03:01;;;;;;;71.05;15.43;;;-0.20;99.90;;;;;;4886075;29;20146;-87
2022/02/13 06:05:38;;;;;;;76.25;19.55;;;-0.20;99.90;;;;;;4885118;29;20701;-87
2022/02/13 06:08:12;;;;;;;73.43;17.08;;;-0.30;99.90;;;;;;4886433;29;20181;-87
2022/02/13 06:10:41;;;;;;;79.65;20.58;;;-0.30;99.90;;;;;;4886223;29;20682;-87
2022/02/13 06:13:11;;;;;;;83.45;20.70;;;-0.30;99.90;;;;;;4884563;29;20695;-87
2022/02/13 06:15:39;;;;;;;72.95;16.33;;;-0.30;99.90;;;;;;4885883;29;20204;-87
2022/02/13 06:18:07;;;;;;;73.15;19.10;;;-0.30;43.10;;;;;;4884923;29;20171;-87
2022/02/13 06:20:45;;;;;;;73.85;16.77;;;-0.30;1.00;;;;;;4886268;29;20159;-87
2022/02/13 06:23:16;;;;;;;73.10;18.38;;;-0.30;20.90;;;;;;4886333;29;20155;-87
2022/02/13 06:25:42;;;;;;;72.95;19.27;;;-0.20;99.90;;;;;;4884089;29;20198;-87
2022/02/13 06:28:16;;;;;;;74.27;14.73;;;-0.20;1.00;;;;;;4884860;29;20171;-87
2022/02/13 06:31:05;;;;;;;71.57;16.15;;;-0.20;43.40;;;;;;4883985;29;20410;-87
2022/02/13 06:33:54;;;;;;;77.55;16.83;;;-0.20;95.50;;;;;;4882543;29;20185;-87
2022/02/13 06:36:30;;;;;;;73.90;13.63;;;-0.20;1.00;;;;;;4885155;29;20195;-87
2022/02/13 06:39:05;;;;;;;72.15;13.77;;;-0.20;99.90;;;;;;4885166;29;20539;-87
2022/02/13 06:44:47;;;;;;;74.78;15.70;;;-0.20;99.90;;;;;;4877316;29;20174;-87
2022/02/13 06:47:21;;;;;;;72.85;13.85;;;-0.20;99.90;;;;;;4884883;29;20273;-87
2022/02/13 06:49:50;;;;;;;73.25;16.17;;;-0.20;99.90;;;;;;4884678;29;20651;-88
2022/02/13 06:52:22;;;;;;;78.32;18.27;;;-0.20;99.90;;;;;;4884967;29;20212;-88
2022/02/13 06:55:20;;;;;;;77.25;16.92;;;-0.20;99.90;;;;;;4885645;29;20193;-87
2022/02/13 06:57:51;;;;;;;74.60;18.95;;;-0.20;99.90;;;;;;4885086;29;20162;-87
2022/02/13 07:00:30;;;;;;;78.65;15.98;;;-0.20;99.90;;;;;;4884459;29;20175;-86
2022/02/13 07:03:25;;;;;;;73.80;15.57;;;-0.20;99.90;;;;;;4883799;29;20186;-87
2022/02/13 07:06:08;;;;;;;77.15;17.30;;;-0.20;99.90;;;;;;4885491;29;20195;-87
2022/02/13 07:08:53;;;;;;;75.40;16.42;;;-0.20;54.20;;;;;;4883779;29;20206;-87
2022/02/13 07:11:34;;;;;;;72.25;14.70;;;-0.20;1.00;;;;;;4885631;29;20155;-87
2022/02/13 07:14:35;;;;;;;77.00;16.45;;;-0.20;99.90;;;;;;4884380;29;20182;-87
2022/02/13 07:17:14;;;;;;;;;;;;;;;;;;;;;
2022/02/13 07:19:45;;;;;;;72.13;15.48;;;-0.10;99.90;;;;;;4884322;29;20184;-86
2022/02/13 07:22:24;;;;;;;;;;;;;;;;;;;;;
2022/02/13 07:24:59;;;;;;;72.93;16.65;;;-0.10;99.90;;;;;;4884708;29;20218;-87
2022/02/13 07:27:32;;;;;;;74.40;13.85;;;0.00;99.90;;;;;;4884404;29;20677;-87
2022/02/13 07:30:13;;;;;;;74.80;15.07;;;0.00;99.90;;;;;;4884936;29;20197;-87
2022/02/13 07:32:46;;;;;;;77.07;16.88;;;0.00;99.90;;;;;;4886761;29;20508;-86
2022/02/13 07:35:46;;;;;;;76.35;16.65;;;0.00;99.90;;;;;;4883811;29;20198;-86
2022/02/13 07:38:21;;;;;;;72.50;15.98;;;0.00;99.90;;;;;;4884523;29;20171;-87
2022/02/13 07:40:57;;;;;;;76.82;20.45;;;0.10;99.90;;;;;;4882894;29;20174;-87
2022/02/13 07:43:32;;;;;;;81.68;22.52;;;0.20;99.90;;;;;;4884733;29;20174;-87
2022/02/13 07:46:46;;;;;;;75.35;25.02;;;0.20;99.90;;;;;;4886104;29;20197;-87
2022/02/13 07:49:33;;;;;;;;;;;;;;;;;;;;;
2022/02/13 07:52:39;;;;;;;;;;;;;;;;;;;;;
2022/02/13 07:55:27;;;;;;;76.65;26.40;;;0.40;99.90;;;;;;4886078;29;20281;-87
2022/02/13 07:58:32;;;;;;;;;;;;;;;;;;;;;
2022/02/13 08:01:13;;;;;;;77.30;26.75;;;0.50;99.90;;;;;;4886266;29;20269;-87
2022/02/13 08:03:56;;;;;;;78.15;26.65;;;0.60;99.90;;;;;;4886822;29;20154;-87
2022/02/13 08:06:37;;;;;;;82.13;24.38;;;0.70;99.90;;;;;;4884828;29;20268;-87
2022/02/13 08:09:39;;;;;;;;;;;;;;;;;;;;;
2022/02/13 08:12:22;;;;;;;76.40;22.58;;;0.90;99.90;;;;;;4885827;29;20261;-87
2022/02/13 08:18:03;;;;;;;;;;;;;;;;;;;;;
2022/02/13 08:20:32;;;;;;;78.18;28.08;;;1.10;99.90;;;;;;4903160;29;20260;-86
2022/02/13 08:23:15;;;;;;;;;;;;;;;;;;;;;
2022/02/13 08:25:58;;;;;;;81.43;22.58;;;1.30;99.90;;;;;;4914572;29;20276;-85
2022/02/13 08:28:29;;;;;;;75.25;25.10;;;1.40;99.90;;;;;;4924427;29;20149;-86
2022/02/13 08:35:00;;;;;;;81.13;29.10;;;1.60;99.90;;;;;;4901685;29;20174;-85
2022/02/13 08:37:50;;;;;;;75.85;22.17;;;1.70;99.90;;;;;;4920888;29;20178;-85
2022/02/13 08:40:43;;;;;;;77.13;25.63;;;1.80;99.90;;;;;;4923520;29;20161;-85
2022/02/13 08:43:49;;;;;;;77.75;18.05;;;1.90;99.10;;;;;;4922110;29;20269;-85
2022/02/13 08:46:24;;;;;;;73.72;18.05;;;1.90;96.40;;;;;;4907963;29;20208;-85
2022/02/13 08:49:06;;;;;;;74.28;17.35;;;2.00;92.10;;;;;;4922751;29;20204;-85
2022/02/13 08:51:34;;;;;;;74.05;13.93;;;2.10;82.20;;;;;;4922221;29;20622;-84
2022/02/13 08:54:14;;;;;;;76.53;14.98;;;2.10;87.50;;;;;;4922513;29;20180;-85
2022/02/13 08:56:54;;;;;;;75.55;12.82;;;2.20;72.30;;;;;;4921003;29;20200;-85
2022/02/13 08:59:23;;;;;;;75.93;14.13;;;2.20;64.20;;;;;;4923838;29;20233;-86
2022/02/13 09:02:00;;;;;;;70.80;15.13;;;2.30;42.50;;;;;;4922858;29;20185;-85
2022/02/13 09:04:38;;;;;;;78.05;16.40;;;2.30;29.00;;;;;;4922227;29;20181;-84
2022/02/13 09:07:16;;;;;;;76.13;15.70;;;2.40;28.20;;;;;;4922641;29;20260;-86
2022/02/13 09:09:51;;;;;;;70.95;15.65;;;2.40;25.90;;;;;;4921816;29;20244;-85
2022/02/13 09:12:25;;;;;;;73.45;14.95;;;2.50;21.00;;;;;;4923241;29;20662;-86
2022/02/13 09:14:58;;;;;;;74.28;14.43;;;2.60;18.50;;;;;;4922650;29;20180;-85
2022/02/13 09:17:46;;;;;;;75.45;12.52;;;2.60;11.00;;;;;;4923400;29;20204;-85
2022/02/13 09:20:29;;;;;;;;;;;;;;;;;;;;;
2022/02/13 09:23:21;;;;;;;74.97;14.10;;;2.80;11.50;;;;;;4924918;29;20232;-85
2022/02/13 09:26:12;;;;;;;75.32;12.88;;;2.90;9.80;;;;;;4922062;29;20212;-86
2022/02/13 09:28:40;;;;;;;76.93;13.40;;;3.00;2.20;;;;;;4924337;29;20224;-86
2022/02/13 09:31:09;;;;;;;72.63;13.80;;;3.00;1.00;;;;;;4924159;29;20173;-86
2022/02/13 09:33:41;;;;;;;75.80;14.43;;;3.00;2.40;;;;;;4924746;29;20207;-85
2022/02/13 09:36:15;;;;;;;74.90;11.43;;;3.10;18.40;;;;;;4925132;29;20306;-86
2022/02/13 09:39:07;;;;;;;72.95;12.13;;;3.20;22.80;;;;;;4925246;29;20177;-86
2022/02/13 09:41:42;;;;;;;71.35;10.13;;;3.30;29.00;;;;;;4924829;29;20177;-86
2022/02/13 09:44:09;;;;;;;75.13;12.88;;;3.40;15.90;;;;;;4926336;29;20153;-86
2022/02/13 09:46:48;;;;;;;71.88;12.05;;;3.40;28.50;;;;;;4923988;29;20348;-86
2022/02/13 09:49:37;;;;;;;74.00;12.80;;;3.50;53.20;;;;;;4924607;29;20542;-86
2022/02/13 09:52:36;;;;;;;72.70;10.65;;;3.50;99.90;;;;;;4924420;29;20173;-86
2022/02/13 09:55:20;;;;;;;72.00;9.50;;;3.60;99.90;;;;;;4860458;29;20741;-86
2022/02/13 09:58:08;;;;;;;75.40;11.10;;;3.70;1.00;;;;;;4924354;29;20173;-86
2022/02/13 10:04:55;;;;;;;71.57;10.93;;;3.90;1.00;;;;;;4870474;29;20305;-86
2022/02/13 10:07:42;;;;;;;71.22;10.90;;;4.00;1.00;;;;;;4852620;29;20243;-86
2022/02/13 10:10:12;;;;;;;75.28;10.70;;;4.20;1.00;;;;;;4871836;29;20202;-86
2022/02/13 10:12:49;;;;;;;71.97;11.13;;;4.40;1.00;;;;;;4873145;29;20528;-85
2022/02/13 10:15:41;;;;;;;70.43;8.90;;;4.60;1.00;;;;;;4875877;29;20205;-86
2022/02/13 10:18:23;;;;;;;74.10;9.23;;;4.80;1.10;;;;;;4875426;29;20206;-86
2022/02/13 10:21:40;;;;;;;;;;;;;;;;;;;;;
2022/02/13 10:24:29;;;;;;;67.90;6.90;;;4.80;1.00;;;;;;4917702;29;20249;-85
2022/02/13 10:27:07;;;;;;;72.03;7.75;;;5.00;1.00;;;;;;4926518;29;20292;-85
2022/02/13 10:29:35;;;;;;;68.90;7.68;;;5.20;1.00;;;;;;4928076;29;20593;-85
2022/02/13 10:32:31;;;;;;;77.55;7.38;;;5.30;1.00;;;;;;4928164;29;20173;-85
2022/02/13 10:35:06;;;;;;;71.28;8.23;;;5.60;1.00;;;;;;4929302;29;20264;-85
2022/02/13 10:37:43;;;;;;;69.72;7.93;;;5.60;1.00;;;;;;4927878;29;20164;-85
2022/02/13 10:40:24;;;;;;;68.97;8.30;;;5.70;1.00;;;;;;4926911;29;20220;-85
2022/02/13 10:43:10;;;;;;;68.15;6.90;;;5.80;1.00;;;;;;4928307;29;20177;-85
2022/02/13 10:45:58;;;;;;;69.22;7.95;;;5.90;1.00;;;;;;4926598;29;20205;-85
2022/02/13 10:48:36;;;;;;;70.30;8.30;;;6.10;1.00;;;;;;4926547;29;20180;-85
2022/02/13 10:51:22;;;;;;;74.25;8.20;;;6.30;1.00;;;;;;4927958;29;20189;-85
2022/02/13 10:57:54;;;;;;;69.35;7.68;;;6.60;1.00;;;;;;4842783;29;20183;-89
2022/02/13 11:00:37;;;;;;;69.15;9.70;;;6.70;1.00;;;;;;4824131;29;20244;-89
2022/02/13 11:04:06;;;;;;;71.78;11.25;;;6.80;1.00;;;;;;4842220;29;20293;-89
2022/02/13 11:06:58;;;;;;;68.05;9.52;;;7.00;1.00;;;;;;4804072;29;20575;-88
2022/02/13 11:10:03;;;;;;;71.07;13.82;;;7.10;1.00;;;;;;4827480;29;20629;-89
2022/02/13 11:12:53;;;;;;;69.07;9.98;;;7.30;1.00;;;;;;4842146;29;20184;-89
2022/02/13 11:15:58;;;;;;;;;;;;;;;;;;;;;
2022/02/13 11:18:36;;;;;;;72.15;10.00;;;7.70;1.00;;;;;;4866481;29;20175;-88
2022/02/13 11:21:03;;;;;;;69.20;12.80;;;7.80;1.00;;;;;;4881899;29;20517;-89
2022/02/13 11:23:37;;;;;;;71.68;20.95;;;7.90;1.00;;;;;;4881155;29;20163;-89
2022/02/13 11:27:00;;;;;;;72.50;14.85;;;8.10;1.00;;;;;;4913150;23;20317;-89
2022/02/13 11:29:53;;;;;;;72.18;19.50;;;8.20;1.00;;;;;;4847813;29;20608;-89
2022/02/13 11:32:48;;;;;;;67.28;12.40;;;8.30;1.00;;;;;;4880262;29;20238;-89
2022/02/13 11:35:57;;;;;;;69.15;11.88;;;8.50;1.00;;;;;;4879228;29;20231;-89
2022/02/13 11:38:38;;;;;;;70.38;12.35;;;8.70;1.00;;;;;;4879116;29;20659;-89
2022/02/13 11:42:01;;;;;;;74.97;14.55;;;8.60;1.00;;;;;;4879698;29;20567;-89
2022/02/13 11:44:49;;;;;;;67.22;11.10;;;8.50;99.90;;;;;;4827063;29;20206;-89
2022/02/13 11:48:01;;;;;;;69.80;12.00;;;8.80;2.60;;;;;;4881454;29;20155;-89
2022/02/13 11:51:10;;;;;;;67.35;8.90;;;8.90;99.90;;;;;;4880273;29;20194;-89
2022/02/13 11:54:03;;;;;;;68.00;9.10;;;8.90;1.00;;;;;;4841636;29;20184;-89
2022/02/13 11:57:13;;;;;;;66.60;8.77;;;8.90;1.00;;;;;;4822003;29;20222;-89
2022/02/13 11:59:59;;;;;;;76.60;10.00;;;9.00;1.00;;;;;;4826122;29;20172;-89
2022/02/13 12:02:38;;;;;;;71.05;8.45;;;9.10;1.00;;;;;;4848560;29;20563;-89
2022/02/13 12:06:12;;;;;;;65.93;6.43;;;9.10;99.90;;;;;;4879377;29;20202;-89
2022/02/13 12:08:35;;;;;;;67.05;6.95;;;9.10;99.90;;;;;;4876642;29;20170;-89
2022/02/13 12:11:43;;;;;;;67.30;7.68;;;9.10;99.90;;;;;;4878919;29;20186;-89
2022/02/13 12:14:37;;;;;;;;;;;;;;;;;;;;;
2022/02/13 12:17:24;;;;;;;69.90;6.68;;;9.40;1.00;;;;;;4840936;29;20174;-89
2022/02/13 12:23:58;;;;;;;66.53;5.22;;;9.80;1.00;;;;;;4804768;29;20677;-90
2022/02/13 12:26:40;;;;;;;66.72;6.10;;;10.00;1.00;;;;;;4791825;29;20701;-89
2022/02/13 12:33:18;;;;;;;67.07;6.10;;;10.10;1.00;;;;;;4788311;29;20183;-89
2022/02/13 12:36:17;;;;;;;;;;;;;;;;;;;;;
2022/02/13 12:39:13;;;;;;;;;;;;;;;;;;;;;
2022/02/13 12:45:58;;;;;;;65.38;5.65;;;10.40;1.00;;;;;;4880901;29;20193;-89
2022/02/13 13:03:13;;;;;;;;;;;;;;;;;;;;;
2022/02/13 13:06:03;;;;;;;71.60;11.52;;;10.80;1.00;;;;;;4889413;23;20217;-89
2022/02/13 13:19:39;;;;;;;;;;;;;;;;;;;;;
2022/02/13 13:23:01;;;;;;;67.80;6.68;;;10.70;1.00;;;;;;4840313;29;20557;-90
2022/02/13 13:26:21;;;;;;;67.25;7.03;;;10.60;7.00;;;;;;4873090;23;20270;-90
2022/02/13 13:29:39;;;;;;;;;;;;;;;;;;;;;
2022/02/13 13:33:01;;;;;;;;;;;;;;;;;;;;;
2022/02/13 13:36:04;;;;;;;67.07;7.40;;;10.50;23.50;;;;;;4861414;29;20202;-90
2022/02/13 13:39:23;;;;;;;68.57;6.93;;;10.60;26.90;;;;;;4842995;29;20212;-90
2022/02/13 13:46:21;;;;;;;;;;;;;;;;;;;;;
2022/02/13 14:13:54;;;;;;;;;;;;;;;;;;;;;
2022/02/13 14:55:41;;;;;;;;;;;;;;;;;;;;;
2022/02/13 14:58:51;;;;;;;69.00;7.22;;;10.60;30.80;;;;;;4841792;29;20672;-90
2022/02/13 15:01:36;;;;;;;;;;;;;;;;;;;;;
2022/02/13 15:18:25;;;;;;;67.72;6.95;;;10.50;18.10;;;;;;4878837;29;20181;-88
2022/02/13 15:24:30;;;;;;;69.82;7.82;;;10.40;22.00;;;;;;4900074;29;20177;-88
2022/02/13 15:27:29;;;;;;;;;;;;;;;;;;;;;
2022/02/13 16:11:45;;;;;;;71.63;9.95;;;9.90;30.60;;;;;;4804508;29;20195;-89
2022/02/13 16:25:06;;;;;;;75.07;15.18;;;9.40;58.50;;;;;;4768291;30;20194;-89
2022/02/13 16:31:28;;;;;;;71.30;13.32;;;9.20;68.80;;;;;;4825328;29;20261;-88
2022/02/13 16:35:01;;;;;;;76.50;13.13;;;9.10;70.80;;;;;;4824264;29;20232;-89
2022/02/13 16:38:27;;;;;;;;;;;;;;;;;;;;;
2022/02/13 16:42:02;;;;;;;72.05;10.52;;;8.80;76.50;;;;;;4785792;29;20209;-89
2022/02/13 16:44:57;;;;;;;75.70;13.65;;;8.70;79.60;;;;;;4769183;29;20186;-89
2022/02/13 16:47:55;;;;;;;73.88;11.40;;;8.60;81.80;;;;;;4770575;30;20193;-89
2022/02/13 16:51:22;;;;;;;74.95;10.70;;;8.60;81.60;;;;;;4750338;30;20368;-89
2022/02/13 16:54:26;;;;;;;73.10;11.30;;;8.50;84.80;;;;;;4806317;29;20662;-89
2022/02/13 16:57:12;;;;;;;75.57;12.80;;;8.40;87.70;;;;;;4810995;29;20197;-88
2022/02/13 17:04:27;;;;;;;;;;;;;;;;;;;;;
2022/02/13 17:07:22;;;;;;;;;;;;;;;;;;;;;
2022/02/13 17:10:06;;;;;;;67.60;8.77;;;8.20;88.40;;;;;;4859876;29;20320;-89
2022/02/13 17:19:23;;;;;;;71.68;10.13;;;8.20;88.80;;;;;;4846446;29;20229;-89
2022/02/13 17:22:26;;;;;;;72.38;9.60;;;8.10;89.10;;;;;;4829841;29;20184;-89
2022/02/13 17:30:21;;;;;;;69.43;8.45;;;8.00;88.60;;;;;;4708866;23;20740;-89
2022/02/13 17:33:13;;;;;;;75.75;9.05;;;8.00;88.20;;;;;;4883741;29;20182;-89
2022/02/13 17:36:26;;;;;;;75.82;8.82;;;8.00;87.60;;;;;;4878120;23;20572;-89
2022/02/13 17:43:15;;;;;;;72.00;10.45;;;7.90;89.20;;;;;;4885435;29;20202;-89